sensor_id;sensor_type;location;lat;lon;timestamp;temperature;humidity
71142;DHT22;58808;59.366;17.970;2022-09-09T00:04:41;11.90;99.90
71142;DHT22;58808;59.366;17.970;2022-09-09T00:07:21;11.80;99.90
71142;DHT22;58808;59.366;17.970;2022-09-09T00:20:25;11.90;99.90
71142;DHT22;58808;59.366;17.970;2022-09-09T00:23:43;12.00;99.90
71142;DHT22;58808;59.366;17.970;2022-09-09T00:28:30;12.00;99.90
71142;DHT22;58808;59.366;17.970;2022-09-09T00:31:07;12.10;99.90
71142;DHT22;58808;59.366;17.970;2022-09-09T00:33:35;12.10;99.90
71142;DHT22;58808;59.366;17.970;2022-09-09T00:36:02;12.20;99.90
71142;DHT22;58808;59.366;17.970;2022-09-09T00:38:49;12.20;99.90
71142;DHT22;58808;59.366;17.970;2022-09-09T00:41:29;12.20;99.90
71142;DHT22;58808;59.366;17.970;2022-09-09T00:46:59;12.30;99.90
71142;DHT22;58808;59.366;17.970;2022-09-09T00:57:35;12.40;99.90
71142;DHT22;58808;59.366;17.970;2022-09-09T01:00:22;12.40;99.90
71142;DHT22;58808;59.366;17.970;2022-09-09T01:11:05;12.40;99.90
71142;DHT22;58808;59.366;17.970;2022-09-09T01:13:34;12.40;99.90
71142;DHT22;58808;59.366;17.970;2022-09-09T01:16:03;12.40;99.90
71142;DHT22;58808;59.366;17.970;2022-09-09T01:18:35;12.40;99.90
71142;DHT22;58808;59.366;17.970;2022-09-09T01:21:21;12.50;99.90
71142;DHT22;58808;59.366;17.970;2022-09-09T01:26:43;12.50;99.90
71142;DHT22;58808;59.366;17.970;2022-09-09T01:29:17;12.50;99.90
71142;DHT22;58808;59.366;17.970;2022-09-09T01:31:53;12.50;99.90
71142;DHT22;58808;59.366;17.970;2022-09-09T01:34:21;12.50;99.90
71142;DHT22;58808;59.366;17.970;2022-09-09T01:37:03;12.50;99.90
71142;DHT22;58808;59.366;17.970;2022-09-09T01:39:31;12.50;99.90
71142;DHT22;58808;59.366;17.970;2022-09-09T01:41:57;12.50;99.90
71142;DHT22;58808;59.366;17.970;2022-09-09T01:44:25;12.60;99.90
71142;DHT22;58808;59.366;17.970;2022-09-09T01:46:51;12.60;99.90
71142;DHT22;58808;59.366;17.970;2022-09-09T01:49:17;12.60;99.90
71142;DHT22;58808;59.366;17.970;2022-09-09T01:51:43;12.50;99.90
71142;DHT22;58808;59.366;17.970;2022-09-09T01:54:10;12.50;99.90
71142;DHT22;58808;59.366;17.970;2022-09-09T02:07:10;12.50;99.90
71142;DHT22;58808;59.366;17.970;2022-09-09T02:09:41;12.50;99.90
71142;DHT22;58808;59.366;17.970;2022-09-09T02:12:13;12.50;99.90
71142;DHT22;58808;59.366;17.970;2022-09-09T02:14:42;12.50;99.90
71142;DHT22;58808;59.366;17.970;2022-09-09T02:17:14;12.50;99.90
71142;DHT22;58808;59.366;17.970;2022-09-09T02:19:51;12.50;99.90
71142;DHT22;58808;59.366;17.970;2022-09-09T02:22:21;12.50;99.90
71142;DHT22;58808;59.366;17.970;2022-09-09T02:24:49;12.50;99.90
71142;DHT22;58808;59.366;17.970;2022-09-09T02:27:17;12.60;99.90
71142;DHT22;58808;59.366;17.970;2022-09-09T02:29:50;12.50;99.90
71142;DHT22;58808;59.366;17.970;2022-09-09T02:32:22;12.60;99.90
71142;DHT22;58808;59.366;17.970;2022-09-09T02:34:55;12.60;99.90
71142;DHT22;58808;59.366;17.970;2022-09-09T02:37:25;12.60;99.90
71142;DHT22;58808;59.366;17.970;2022-09-09T02:39:58;12.60;99.90
71142;DHT22;58808;59.366;17.970;2022-09-09T02:42:24;12.60;99.90
71142;DHT22;58808;59.366;17.970;2022-09-09T02:44:49;12.60;99.90
71142;DHT22;58808;59.366;17.970;2022-09-09T02:47:36;12.60;99.90
71142;DHT22;58808;59.366;17.970;2022-09-09T02:50:25;12.60;99.90
71142;DHT22;58808;59.366;17.970;2022-09-09T02:53:17;12.60;99.90
71142;DHT22;58808;59.366;17.970;2022-09-09T02:56:00;12.60;99.90
71142;DHT22;58808;59.366;17.970;2022-09-09T02:58:29;12.60;99.90
71142;DHT22;58808;59.366;17.970;2022-09-09T03:00:55;12.60;99.90
71142;DHT22;58808;59.366;17.970;2022-09-09T03:03:23;12.60;99.90
71142;DHT22;58808;59.366;17.970;2022-09-09T03:05:49;12.70;99.90
71142;DHT22;58808;59.366;17.970;2022-09-09T03:08:15;12.70;99.90
71142;DHT22;58808;59.366;17.970;2022-09-09T03:10:41;12.70;99.90
71142;DHT22;58808;59.366;17.970;2022-09-09T03:13:07;12.70;99.90
71142;DHT22;58808;59.366;17.970;2022-09-09T03:15:34;12.70;99.90
71142;DHT22;58808;59.366;17.970;2022-09-09T03:18:00;12.80;99.90
71142;DHT22;58808;59.366;17.970;2022-09-09T03:20:31;12.80;99.90
71142;DHT22;58808;59.366;17.970;2022-09-09T03:22:58;12.80;99.90
71142;DHT22;58808;59.366;17.970;2022-09-09T03:25:24;12.90;99.90
71142;DHT22;58808;59.366;17.970;2022-09-09T03:27:52;12.90;99.90
71142;DHT22;58808;59.366;17.970;2022-09-09T03:30:23;12.90;99.90
71142;DHT22;58808;59.366;17.970;2022-09-09T03:32:49;12.90;99.90
71142;DHT22;58808;59.366;17.970;2022-09-09T03:35:15;12.90;99.90
71142;DHT22;58808;59.366;17.970;2022-09-09T03:37:41;13.00;99.90
71142;DHT22;58808;59.366;17.970;2022-09-09T03:40:07;13.00;99.90
71142;DHT22;58808;59.366;17.970;2022-09-09T03:42:35;13.00;99.90
71142;DHT22;58808;59.366;17.970;2022-09-09T03:45:06;13.00;99.90
71142;DHT22;58808;59.366;17.970;2022-09-09T03:47:32;13.00;99.90
71142;DHT22;58808;59.366;17.970;2022-09-09T03:49:58;13.00;99.90
71142;DHT22;58808;59.366;17.970;2022-09-09T03:52:24;13.00;99.90
71142;DHT22;58808;59.366;17.970;2022-09-09T03:54:52;12.90;99.90
71142;DHT22;58808;59.366;17.970;2022-09-09T03:57:18;12.90;99.90
71142;DHT22;58808;59.366;17.970;2022-09-09T03:59:44;12.90;99.90
71142;DHT22;58808;59.366;17.970;2022-09-09T04:02:10;13.00;99.90
71142;DHT22;58808;59.366;17.970;2022-09-09T04:04:35;13.00;99.90
71142;DHT22;58808;59.366;17.970;2022-09-09T04:07:01;13.00;99.90
71142;DHT22;58808;59.366;17.970;2022-09-09T04:09:27;13.00;99.90
71142;DHT22;58808;59.366;17.970;2022-09-09T04:11:53;13.00;99.90
71142;DHT22;58808;59.366;17.970;2022-09-09T04:14:19;12.90;99.90
71142;DHT22;58808;59.366;17.970;2022-09-09T04:16:45;13.00;99.90
71142;DHT22;58808;59.366;17.970;2022-09-09T04:19:12;13.00;99.90
71142;DHT22;58808;59.366;17.970;2022-09-09T04:21:42;13.00;99.90
71142;DHT22;58808;59.366;17.970;2022-09-09T04:24:08;13.00;99.90
71142;DHT22;58808;59.366;17.970;2022-09-09T04:26:35;13.00;99.90
71142;DHT22;58808;59.366;17.970;2022-09-09T04:29:03;13.10;99.90
71142;DHT22;58808;59.366;17.970;2022-09-09T04:31:29;13.10;99.90
71142;DHT22;58808;59.366;17.970;2022-09-09T04:33:55;13.10;99.90
71142;DHT22;58808;59.366;17.970;2022-09-09T04:36:21;13.10;99.90
71142;DHT22;58808;59.366;17.970;2022-09-09T04:38:47;13.10;99.90
71142;DHT22;58808;59.366;17.970;2022-09-09T04:41:14;13.20;99.90
71142;DHT22;58808;59.366;17.970;2022-09-09T04:43:40;13.20;99.90
71142;DHT22;58808;59.366;17.970;2022-09-09T04:46:06;13.10;99.90
71142;DHT22;58808;59.366;17.970;2022-09-09T04:48:33;13.20;99.90
71142;DHT22;58808;59.366;17.970;2022-09-09T04:51:03;13.20;99.90
71142;DHT22;58808;59.366;17.970;2022-09-09T04:53:30;13.20;99.90
71142;DHT22;58808;59.366;17.970;2022-09-09T04:56:11;13.20;99.90
71142;DHT22;58808;59.366;17.970;2022-09-09T04:58:37;13.20;99.90
71142;DHT22;58808;59.366;17.970;2022-09-09T05:01:20;13.20;99.90
71142;DHT22;58808;59.366;17.970;2022-09-09T05:03:47;13.20;99.90
71142;DHT22;58808;59.366;17.970;2022-09-09T05:06:15;13.30;99.90
71142;DHT22;58808;59.366;17.970;2022-09-09T05:08:46;13.30;99.90
71142;DHT22;58808;59.366;17.970;2022-09-09T05:11:18;13.30;99.90
71142;DHT22;58808;59.366;17.970;2022-09-09T05:13:45;13.30;99.90
71142;DHT22;58808;59.366;17.970;2022-09-09T05:16:12;13.20;99.90
71142;DHT22;58808;59.366;17.970;2022-09-09T05:18:39;13.30;99.90
71142;DHT22;58808;59.366;17.970;2022-09-09T05:21:05;13.30;99.90
71142;DHT22;58808;59.366;17.970;2022-09-09T05:23:34;13.30;99.90
71142;DHT22;58808;59.366;17.970;2022-09-09T05:26:01;13.40;99.90
71142;DHT22;58808;59.366;17.970;2022-09-09T05:28:28;13.30;99.90
71142;DHT22;58808;59.366;17.970;2022-09-09T05:30:58;13.40;99.90
71142;DHT22;58808;59.366;17.970;2022-09-09T05:33:26;13.40;98.50
71142;DHT22;58808;59.366;17.970;2022-09-09T05:35:59;13.40;99.00
71142;DHT22;58808;59.366;17.970;2022-09-09T05:38:25;13.40;95.70
71142;DHT22;58808;59.366;17.970;2022-09-09T05:40:52;13.50;92.70
71142;DHT22;58808;59.366;17.970;2022-09-09T05:43:19;13.50;92.30
71142;DHT22;58808;59.366;17.970;2022-09-09T05:45:46;13.60;84.80
71142;DHT22;58808;59.366;17.970;2022-09-09T05:48:13;13.60;84.40
71142;DHT22;58808;59.366;17.970;2022-09-09T05:50:40;13.60;79.60
71142;DHT22;58808;59.366;17.970;2022-09-09T05:53:06;13.60;82.10
71142;DHT22;58808;59.366;17.970;2022-09-09T05:55:32;13.50;77.80
71142;DHT22;58808;59.366;17.970;2022-09-09T05:57:57;13.50;80.80
71142;DHT22;58808;59.366;17.970;2022-09-09T06:00:23;13.50;82.60
71142;DHT22;58808;59.366;17.970;2022-09-09T06:02:52;13.50;82.00
71142;DHT22;58808;59.366;17.970;2022-09-09T06:05:19;13.50;82.30
71142;DHT22;58808;59.366;17.970;2022-09-09T06:07:45;13.50;79.20
71142;DHT22;58808;59.366;17.970;2022-09-09T06:10:11;13.60;80.60
71142;DHT22;58808;59.366;17.970;2022-09-09T06:12:40;13.60;78.50
71142;DHT22;58808;59.366;17.970;2022-09-09T06:15:06;13.60;78.90
71142;DHT22;58808;59.366;17.970;2022-09-09T06:17:32;13.60;81.20
71142;DHT22;58808;59.366;17.970;2022-09-09T06:19:58;13.60;73.70
71142;DHT22;58808;59.366;17.970;2022-09-09T06:22:24;13.60;72.00
71142;DHT22;58808;59.366;17.970;2022-09-09T06:24:50;13.60;69.00
71142;DHT22;58808;59.366;17.970;2022-09-09T06:27:16;13.70;69.60
71142;DHT22;58808;59.366;17.970;2022-09-09T06:29:42;13.70;70.90
71142;DHT22;58808;59.366;17.970;2022-09-09T06:32:08;13.70;68.50
71142;DHT22;58808;59.366;17.970;2022-09-09T06:34:34;13.70;70.10
71142;DHT22;58808;59.366;17.970;2022-09-09T06:37:01;13.70;68.10
71142;DHT22;58808;59.366;17.970;2022-09-09T06:39:26;13.70;67.90
71142;DHT22;58808;59.366;17.970;2022-09-09T06:41:52;13.80;69.00
71142;DHT22;58808;59.366;17.970;2022-09-09T06:44:19;13.80;68.40
71142;DHT22;58808;59.366;17.970;2022-09-09T06:46:45;13.80;68.10
71142;DHT22;58808;59.366;17.970;2022-09-09T06:49:18;13.80;69.20
71142;DHT22;58808;59.366;17.970;2022-09-09T06:51:44;13.80;71.00
71142;DHT22;58808;59.366;17.970;2022-09-09T06:54:11;13.80;67.80
71142;DHT22;58808;59.366;17.970;2022-09-09T06:56:39;13.80;67.00
71142;DHT22;58808;59.366;17.970;2022-09-09T06:59:09;13.80;67.20
71142;DHT22;58808;59.366;17.970;2022-09-09T07:01:37;13.80;67.90
71142;DHT22;58808;59.366;17.970;2022-09-09T07:04:04;13.80;67.20
71142;DHT22;58808;59.366;17.970;2022-09-09T07:06:34;13.80;68.10
71142;DHT22;58808;59.366;17.970;2022-09-09T07:09:03;13.90;68.90
71142;DHT22;58808;59.366;17.970;2022-09-09T07:11:31;13.90;70.30
71142;DHT22;58808;59.366;17.970;2022-09-09T07:13:58;13.90;68.10
71142;DHT22;58808;59.366;17.970;2022-09-09T07:16:25;14.00;65.00
71142;DHT22;58808;59.366;17.970;2022-09-09T07:18:53;14.00;65.90
71142;DHT22;58808;59.366;17.970;2022-09-09T07:21:23;14.00;60.90
71142;DHT22;58808;59.366;17.970;2022-09-09T07:23:49;14.00;60.40
71142;DHT22;58808;59.366;17.970;2022-09-09T07:26:20;14.10;60.50
71142;DHT22;58808;59.366;17.970;2022-09-09T07:28:47;14.10;58.70
71142;DHT22;58808;59.366;17.970;2022-09-09T07:31:16;14.20;59.50
71142;DHT22;58808;59.366;17.970;2022-09-09T07:33:43;14.30;59.40
71142;DHT22;58808;59.366;17.970;2022-09-09T07:36:15;14.50;57.90
71142;DHT22;58808;59.366;17.970;2022-09-09T07:38:45;14.70;56.40
71142;DHT22;58808;59.366;17.970;2022-09-09T07:41:17;14.80;54.10
71142;DHT22;58808;59.366;17.970;2022-09-09T07:43:45;14.90;53.40
71142;DHT22;58808;59.366;17.970;2022-09-09T07:46:12;15.00;52.60
71142;DHT22;58808;59.366;17.970;2022-09-09T07:48:39;15.00;51.90
71142;DHT22;58808;59.366;17.970;2022-09-09T07:51:11;14.90;52.50
71142;DHT22;58808;59.366;17.970;2022-09-09T07:53:38;14.80;53.30
71142;DHT22;58808;59.366;17.970;2022-09-09T07:56:12;15.00;52.20
71142;DHT22;58808;59.366;17.970;2022-09-09T07:58:39;15.00;51.70
71142;DHT22;58808;59.366;17.970;2022-09-09T08:01:09;15.00;53.10
71142;DHT22;58808;59.366;17.970;2022-09-09T08:03:35;14.80;56.40
71142;DHT22;58808;59.366;17.970;2022-09-09T08:06:07;14.80;58.20
71142;DHT22;58808;59.366;17.970;2022-09-09T08:08:34;14.70;58.80
71142;DHT22;58808;59.366;17.970;2022-09-09T08:11:06;14.70;59.30
71142;DHT22;58808;59.366;17.970;2022-09-09T08:13:36;14.70;60.90
71142;DHT22;58808;59.366;17.970;2022-09-09T08:16:07;14.90;57.30
71142;DHT22;58808;59.366;17.970;2022-09-09T08:18:34;15.00;56.30
71142;DHT22;58808;59.366;17.970;2022-09-09T08:21:11;15.10;55.80
71142;DHT22;58808;59.366;17.970;2022-09-09T08:23:41;15.00;55.00
71142;DHT22;58808;59.366;17.970;2022-09-09T08:26:12;14.90;55.60
71142;DHT22;58808;59.366;17.970;2022-09-09T08:28:38;14.70;57.20
71142;DHT22;58808;59.366;17.970;2022-09-09T08:31:13;14.70;56.90
71142;DHT22;58808;59.366;17.970;2022-09-09T08:33:40;14.70;58.10
71142;DHT22;58808;59.366;17.970;2022-09-09T08:36:08;14.70;59.70
71142;DHT22;58808;59.366;17.970;2022-09-09T08:38:35;14.70;59.50
71142;DHT22;58808;59.366;17.970;2022-09-09T08:41:31;14.80;60.40
71142;DHT22;58808;59.366;17.970;2022-09-09T08:44:07;14.90;63.50
71142;DHT22;58808;59.366;17.970;2022-09-09T08:49:45;15.10;56.00
71142;DHT22;58808;59.366;17.970;2022-09-09T08:52:18;15.00;56.70
71142;DHT22;58808;59.366;17.970;2022-09-09T08:54:46;14.90;57.00
71142;DHT22;58808;59.366;17.970;2022-09-09T08:57:18;14.90;57.70
71142;DHT22;58808;59.366;17.970;2022-09-09T08:59:45;14.80;57.90
71142;DHT22;58808;59.366;17.970;2022-09-09T09:07:31;14.90;65.00
71142;DHT22;58808;59.366;17.970;2022-09-09T09:12:29;14.90;65.40
71142;DHT22;58808;59.366;17.970;2022-09-09T09:14:59;14.90;64.50
71142;DHT22;58808;59.366;17.970;2022-09-09T09:17:27;14.90;65.40
71142;DHT22;58808;59.366;17.970;2022-09-09T09:19:57;15.10;63.50
71142;DHT22;58808;59.366;17.970;2022-09-09T09:22:41;15.10;61.40
71142;DHT22;58808;59.366;17.970;2022-09-09T09:25:34;15.00;57.70
71142;DHT22;58808;59.366;17.970;2022-09-09T09:28:18;15.00;59.10
71142;DHT22;58808;59.366;17.970;2022-09-09T09:31:09;15.00;61.10
71142;DHT22;58808;59.366;17.970;2022-09-09T09:36:13;15.20;60.70
71142;DHT22;58808;59.366;17.970;2022-09-09T09:38:58;15.20;62.30
71142;DHT22;58808;59.366;17.970;2022-09-09T09:41:36;15.10;65.20
71142;DHT22;58808;59.366;17.970;2022-09-09T09:44:05;15.00;65.40
71142;DHT22;58808;59.366;17.970;2022-09-09T09:46:32;15.00;65.50
71142;DHT22;58808;59.366;17.970;2022-09-09T09:49:08;15.00;69.00
71142;DHT22;58808;59.366;17.970;2022-09-09T09:51:35;15.00;67.20
71142;DHT22;58808;59.366;17.970;2022-09-09T09:56:41;15.00;63.20
71142;DHT22;58808;59.366;17.970;2022-09-09T09:59:24;15.20;64.10
71142;DHT22;58808;59.366;17.970;2022-09-09T10:02:17;15.20;61.70
71142;DHT22;58808;59.366;17.970;2022-09-09T10:04:44;15.20;64.10
71142;DHT22;58808;59.366;17.970;2022-09-09T10:07:21;15.20;60.80
71142;DHT22;58808;59.366;17.970;2022-09-09T10:09:56;15.50;60.60
71142;DHT22;58808;59.366;17.970;2022-09-09T10:15:25;16.00;59.90
71142;DHT22;58808;59.366;17.970;2022-09-09T10:18:25;16.00;57.90
71142;DHT22;58808;59.366;17.970;2022-09-09T10:32:00;16.50;54.20
71142;DHT22;58808;59.366;17.970;2022-09-09T10:42:54;16.50;52.50
71142;DHT22;58808;59.366;17.970;2022-09-09T10:50:52;16.80;50.20
71142;DHT22;58808;59.366;17.970;2022-09-09T10:56:10;17.10;51.90
71142;DHT22;58808;59.366;17.970;2022-09-09T10:59:00;17.40;51.80
71142;DHT22;58808;59.366;17.970;2022-09-09T11:04:16;17.80;52.40
71142;DHT22;58808;59.366;17.970;2022-09-09T11:06:46;17.70;50.30
71142;DHT22;58808;59.366;17.970;2022-09-09T11:09:16;17.60;50.30
71142;DHT22;58808;59.366;17.970;2022-09-09T11:11:56;17.60;49.80
71142;DHT22;58808;59.366;17.970;2022-09-09T11:14:47;17.60;49.60
71142;DHT22;58808;59.366;17.970;2022-09-09T11:17:18;17.80;50.20
71142;DHT22;58808;59.366;17.970;2022-09-09T11:19:46;18.00;49.30
71142;DHT22;58808;59.366;17.970;2022-09-09T11:22:34;18.10;47.50
71142;DHT22;58808;59.366;17.970;2022-09-09T11:25:18;18.10;47.10
71142;DHT22;58808;59.366;17.970;2022-09-09T11:28:19;17.90;48.30
71142;DHT22;58808;59.366;17.970;2022-09-09T11:36:13;17.80;47.00
71142;DHT22;58808;59.366;17.970;2022-09-09T11:38:50;17.90;47.60
71142;DHT22;58808;59.366;17.970;2022-09-09T11:41:17;18.00;48.40
71142;DHT22;58808;59.366;17.970;2022-09-09T11:43:50;17.90;47.80
71142;DHT22;58808;59.366;17.970;2022-09-09T11:46:21;17.90;48.50
71142;DHT22;58808;59.366;17.970;2022-09-09T11:49:02;17.80;49.00
71142;DHT22;58808;59.366;17.970;2022-09-09T11:51:30;17.80;50.40
71142;DHT22;58808;59.366;17.970;2022-09-09T11:54:01;18.00;49.80
71142;DHT22;58808;59.366;17.970;2022-09-09T11:56:32;18.20;50.20
71142;DHT22;58808;59.366;17.970;2022-09-09T11:59:06;18.50;49.20
71142;DHT22;58808;59.366;17.970;2022-09-09T12:01:41;18.50;48.50
71142;DHT22;58808;59.366;17.970;2022-09-09T12:04:17;18.40;48.40
71142;DHT22;58808;59.366;17.970;2022-09-09T12:07:00;18.40;49.20
71142;DHT22;58808;59.366;17.970;2022-09-09T12:09:48;18.20;50.10
71142;DHT22;58808;59.366;17.970;2022-09-09T12:17:29;18.70;49.10
71142;DHT22;58808;59.366;17.970;2022-09-09T12:20:19;18.80;48.10
71142;DHT22;58808;59.366;17.970;2022-09-09T12:34:48;18.80;48.30
71142;DHT22;58808;59.366;17.970;2022-09-09T12:36:55;18.90;48.00
71142;DHT22;58808;59.366;17.970;2022-09-09T12:39:47;18.90;48.40
71142;DHT22;58808;59.366;17.970;2022-09-09T12:42:22;18.90;48.10
71142;DHT22;58808;59.366;17.970;2022-09-09T12:47:19;19.30;48.50
71142;DHT22;58808;59.366;17.970;2022-09-09T12:49:47;19.40;48.30
71142;DHT22;58808;59.366;17.970;2022-09-09T12:52:35;19.40;48.30
71142;DHT22;58808;59.366;17.970;2022-09-09T12:55:04;19.40;47.10
71142;DHT22;58808;59.366;17.970;2022-09-09T12:57:39;19.40;46.90
71142;DHT22;58808;59.366;17.970;2022-09-09T13:00:10;19.40;47.30
71142;DHT22;58808;59.366;17.970;2022-09-09T13:05:17;19.20;46.70
71142;DHT22;58808;59.366;17.970;2022-09-09T13:07:43;19.20;46.80
71142;DHT22;58808;59.366;17.970;2022-09-09T13:10:14;19.30;47.00
71142;DHT22;58808;59.366;17.970;2022-09-09T13:12:41;19.20;46.90
71142;DHT22;58808;59.366;17.970;2022-09-09T13:15:16;18.90;47.80
71142;DHT22;58808;59.366;17.970;2022-09-09T13:17:56;18.70;48.30
71142;DHT22;58808;59.366;17.970;2022-09-09T13:20:23;18.50;48.80
71142;DHT22;58808;59.366;17.970;2022-09-09T13:22:52;18.60;49.40
71142;DHT22;58808;59.366;17.970;2022-09-09T13:27:58;19.00;47.40
71142;DHT22;58808;59.366;17.970;2022-09-09T13:33:22;19.10;47.90
71142;DHT22;58808;59.366;17.970;2022-09-09T13:35:58;19.00;47.80
71142;DHT22;58808;59.366;17.970;2022-09-09T13:38:25;18.90;47.10
71142;DHT22;58808;59.366;17.970;2022-09-09T13:41:07;18.80;47.10
71142;DHT22;58808;59.366;17.970;2022-09-09T13:43:44;18.70;47.50
71142;DHT22;58808;59.366;17.970;2022-09-09T13:46:39;18.60;47.90
71142;DHT22;58808;59.366;17.970;2022-09-09T13:54:04;18.50;48.50
71142;DHT22;58808;59.366;17.970;2022-09-09T13:56:32;18.50;48.70
71142;DHT22;58808;59.366;17.970;2022-09-09T13:58:58;18.70;48.60
71142;DHT22;58808;59.366;17.970;2022-09-09T14:01:23;18.80;48.00
71142;DHT22;58808;59.366;17.970;2022-09-09T14:03:49;18.90;48.20
71142;DHT22;58808;59.366;17.970;2022-09-09T14:06:16;19.00;47.90
71142;DHT22;58808;59.366;17.970;2022-09-09T14:08:44;19.20;46.90
71142;DHT22;58808;59.366;17.970;2022-09-09T14:11:12;19.20;47.20
71142;DHT22;58808;59.366;17.970;2022-09-09T14:13:38;19.30;47.20
71142;DHT22;58808;59.366;17.970;2022-09-09T14:16:04;19.20;47.20
71142;DHT22;58808;59.366;17.970;2022-09-09T14:18:30;19.00;47.00
71142;DHT22;58808;59.366;17.970;2022-09-09T14:20:55;18.80;47.40
71142;DHT22;58808;59.366;17.970;2022-09-09T14:23:22;18.50;48.60
71142;DHT22;58808;59.366;17.970;2022-09-09T14:25:49;18.30;49.30
71142;DHT22;58808;59.366;17.970;2022-09-09T14:28:15;18.30;49.50
71142;DHT22;58808;59.366;17.970;2022-09-09T14:30:42;18.10;49.10
71142;DHT22;58808;59.366;17.970;2022-09-09T14:33:11;18.00;49.90
71142;DHT22;58808;59.366;17.970;2022-09-09T14:35:37;18.10;48.40
71142;DHT22;58808;59.366;17.970;2022-09-09T14:38:04;18.10;48.50
71142;DHT22;58808;59.366;17.970;2022-09-09T14:40:30;18.20;48.20
71142;DHT22;58808;59.366;17.970;2022-09-09T14:42:56;18.30;49.20
71142;DHT22;58808;59.366;17.970;2022-09-09T14:45:23;18.60;48.50
71142;DHT22;58808;59.366;17.970;2022-09-09T14:47:50;18.80;48.10
71142;DHT22;58808;59.366;17.970;2022-09-09T14:50:18;18.70;47.20
71142;DHT22;58808;59.366;17.970;2022-09-09T14:52:43;18.30;47.90
71142;DHT22;58808;59.366;17.970;2022-09-09T14:55:09;18.10;49.10
71142;DHT22;58808;59.366;17.970;2022-09-09T14:57:35;18.20;49.70
71142;DHT22;58808;59.366;17.970;2022-09-09T15:00:03;18.30;49.40
71142;DHT22;58808;59.366;17.970;2022-09-09T15:02:29;18.40;48.80
71142;DHT22;58808;59.366;17.970;2022-09-09T15:04:55;18.50;48.10
71142;DHT22;58808;59.366;17.970;2022-09-09T15:07:26;18.50;48.00
71142;DHT22;58808;59.366;17.970;2022-09-09T15:09:54;18.20;48.00
71142;DHT22;58808;59.366;17.970;2022-09-09T15:12:20;17.90;49.10
71142;DHT22;58808;59.366;17.970;2022-09-09T15:14:46;17.60;50.10
71142;DHT22;58808;59.366;17.970;2022-09-09T15:17:14;17.40;51.10
71142;DHT22;58808;59.366;17.970;2022-09-09T15:19:40;17.20;52.00
71142;DHT22;58808;59.366;17.970;2022-09-09T15:22:08;17.10;52.70
71142;DHT22;58808;59.366;17.970;2022-09-09T15:24:34;17.00;53.40
71142;DHT22;58808;59.366;17.970;2022-09-09T15:27:00;16.80;54.10
71142;DHT22;58808;59.366;17.970;2022-09-09T15:29:27;16.80;55.00
71142;DHT22;58808;59.366;17.970;2022-09-09T15:31:56;16.80;54.70
71142;DHT22;58808;59.366;17.970;2022-09-09T15:34:22;16.70;54.90
71142;DHT22;58808;59.366;17.970;2022-09-09T15:36:48;16.70;55.00
71142;DHT22;58808;59.366;17.970;2022-09-09T15:39:16;16.60;54.60
71142;DHT22;58808;59.366;17.970;2022-09-09T15:41:46;16.50;55.10
71142;DHT22;58808;59.366;17.970;2022-09-09T15:44:12;16.40;55.30
71142;DHT22;58808;59.366;17.970;2022-09-09T15:46:39;16.30;55.60
71142;DHT22;58808;59.366;17.970;2022-09-09T15:51:42;16.30;56.20
71142;DHT22;58808;59.366;17.970;2022-09-09T15:54:14;16.20;56.20
71142;DHT22;58808;59.366;17.970;2022-09-09T15:56:41;16.20;56.70
71142;DHT22;58808;59.366;17.970;2022-09-09T15:59:07;16.20;56.70
71142;DHT22;58808;59.366;17.970;2022-09-09T16:01:33;16.10;57.90
71142;DHT22;58808;59.366;17.970;2022-09-09T16:03:59;16.10;57.90
71142;DHT22;58808;59.366;17.970;2022-09-09T16:06:27;16.20;57.80
71142;DHT22;58808;59.366;17.970;2022-09-09T16:08:54;16.10;58.50
71142;DHT22;58808;59.366;17.970;2022-09-09T16:11:22;16.10;59.10
71142;DHT22;58808;59.366;17.970;2022-09-09T16:13:50;16.10;60.00
71142;DHT22;58808;59.366;17.970;2022-09-09T16:16:18;16.00;60.90
71142;DHT22;58808;59.366;17.970;2022-09-09T16:18:58;15.90;61.80
71142;DHT22;58808;59.366;17.970;2022-09-09T16:21:25;16.00;61.30
71142;DHT22;58808;59.366;17.970;2022-09-09T16:23:52;16.00;61.90
71142;DHT22;58808;59.366;17.970;2022-09-09T16:26:19;16.00;61.90
71142;DHT22;58808;59.366;17.970;2022-09-09T16:28:45;15.90;61.90
71142;DHT22;58808;59.366;17.970;2022-09-09T16:31:17;15.90;62.50
71142;DHT22;58808;59.366;17.970;2022-09-09T16:33:44;15.90;61.80
71142;DHT22;58808;59.366;17.970;2022-09-09T16:36:16;15.80;62.30
71142;DHT22;58808;59.366;17.970;2022-09-09T16:38:42;15.70;63.60
71142;DHT22;58808;59.366;17.970;2022-09-09T16:41:13;15.70;64.10
71142;DHT22;58808;59.366;17.970;2022-09-09T16:43:40;15.60;64.20
71142;DHT22;58808;59.366;17.970;2022-09-09T16:46:14;15.60;65.80
71142;DHT22;58808;59.366;17.970;2022-09-09T16:48:42;15.60;66.20
71142;DHT22;58808;59.366;17.970;2022-09-09T16:51:18;15.60;66.40
71142;DHT22;58808;59.366;17.970;2022-09-09T16:53:44;15.60;67.10
71142;DHT22;58808;59.366;17.970;2022-09-09T16:56:15;15.60;67.10
71142;DHT22;58808;59.366;17.970;2022-09-09T16:58:42;15.60;68.00
71142;DHT22;58808;59.366;17.970;2022-09-09T17:01:11;15.60;67.50
71142;DHT22;58808;59.366;17.970;2022-09-09T17:03:39;15.60;67.90
71142;DHT22;58808;59.366;17.970;2022-09-09T17:06:12;15.50;67.90
71142;DHT22;58808;59.366;17.970;2022-09-09T17:08:39;15.50;67.40
71142;DHT22;58808;59.366;17.970;2022-09-09T17:11:20;15.50;69.30
71142;DHT22;58808;59.366;17.970;2022-09-09T17:13:47;15.40;68.10
71142;DHT22;58808;59.366;17.970;2022-09-09T17:16:15;15.40;67.30
71142;DHT22;58808;59.366;17.970;2022-09-09T17:18:42;15.40;67.80
71142;DHT22;58808;59.366;17.970;2022-09-09T17:21:12;15.40;67.90
71142;DHT22;58808;59.366;17.970;2022-09-09T17:23:40;15.40;68.80
71142;DHT22;58808;59.366;17.970;2022-09-09T17:26:08;15.40;68.50
71142;DHT22;58808;59.366;17.970;2022-09-09T17:28:35;15.30;70.10
71142;DHT22;58808;59.366;17.970;2022-09-09T17:31:01;15.40;70.20
71142;DHT22;58808;59.366;17.970;2022-09-09T17:33:32;15.30;71.20
71142;DHT22;58808;59.366;17.970;2022-09-09T17:35:59;15.30;72.90
71142;DHT22;58808;59.366;17.970;2022-09-09T17:38:27;15.20;73.90
71142;DHT22;58808;59.366;17.970;2022-09-09T17:41:08;15.20;74.40
71142;DHT22;58808;59.366;17.970;2022-09-09T17:43:34;15.20;75.40
71142;DHT22;58808;59.366;17.970;2022-09-09T17:46:08;15.10;75.90
71142;DHT22;58808;59.366;17.970;2022-09-09T17:48:35;15.20;76.30
71142;DHT22;58808;59.366;17.970;2022-09-09T17:51:03;15.10;77.40
71142;DHT22;58808;59.366;17.970;2022-09-09T17:53:30;15.10;77.60